Here is the Quick Look data you requested

The Data originates at the National Weather Service, and is made available here by the UAlbany Department of Atmospheric and Environmental Sciences

Surface Observations

K1V4 220454Z AUTO 17/17 A3004 RMK AO1 SLP162 T01670167 402780128=
KBTV 220454Z 19005KT 10SM CLR 23/18 A3002 RMK AO2 SLP162 T02280178 402940167=
KDDH 220454Z AUTO 00000KT 6SM BR CLR 19/18 A3006 RMK AO2 SLP175 T01940178
 402830133=
KEFK 220455Z AUTO 21004KT 10SM BKN055 20/16 A3005 RMK AO2 T02000162 402590134=
KMPV 220451Z AUTO 00000KT 10SM CLR 17/16 A3009 RMK AO2 SLP185 T01720161
 402720117=
KMVL 220454Z AUTO 21003KT 9SM CLR 17/16 A3005 RMK AO2 SLP174 T01670161
 402780117 TSNO=
KRUT 220456Z AUTO 12006KT 10SM CLR 18/16 A3006 RMK AO2 SLP190 T01780161 $=
KVSF 220454Z AUTO 00000KT 9SM CLR 16/15 A3007 RMK AO2 SLP180 T01610150
 402830117=